Time;durP1;ratioP1;P1;durP2;ratioP2;P2;SDS_P1;SDS_P2;PMS_P1;PMS_P2;Temp;Humidity;BMP_temperature;BMP_pressure;BME280_temperature;BME280_humidity;BME280_pressure;Samples;Min_cycle;Max_cycle;Signal;HPM_P1;HPM_P2
2022/08/17 00:00:13;;;;;;;56.92;34.25;;;;;;;;;;5021264;28;20087;-82
2022/08/17 00:02:54;;;;;;;56.58;34.28;;;;;;;;;;5018003;28;20117;-82
2022/08/17 00:05:20;;;;;;;58.80;36.90;;;;;;;;;;5021701;28;20108;-81
2022/08/17 00:07:46;;;;;;;51.80;34.15;;;;;;;;;;5026972;28;20048;-81
2022/08/17 00:10:11;;;;;;;56.88;34.83;;;;;;;;;;5024617;28;20037;-82
2022/08/17 00:12:40;;;;;;;54.38;33.10;;;;;;;;;;5023471;28;20087;-82
2022/08/17 00:15:05;;;;;;;54.67;36.22;;;;;;;;;;5040705;28;20022;-80
2022/08/17 00:17:30;;;;;;;62.65;36.17;;;;;;;;;;5024280;28;20059;-83
2022/08/17 00:19:56;;;;;;;59.87;36.67;;;;;;;;;;5026974;28;20038;-80
2022/08/17 00:22:21;;;;;;;54.95;34.47;;;;;;;;;;5021282;28;20652;-81
2022/08/17 00:24:47;;;;;;;59.33;34.03;;;;;;;;;;5023825;28;20017;-81
2022/08/17 00:27:12;;;;;;;56.10;33.70;;;;;;;;;;5026993;28;20029;-81
2022/08/17 00:29:37;;;;;;;50.07;33.43;;;;;;;;;;5023955;28;20030;-82
2022/08/17 00:32:03;;;;;;;54.40;35.58;;;;;;;;;;5042677;28;20283;-80
2022/08/17 00:34:28;;;;;;;76.50;33.35;;;;;;;;;;5024561;28;20056;-80
2022/08/17 00:36:54;;;;;;;57.20;34.72;;;;;;;;;;5028517;28;20014;-80
2022/08/17 00:39:19;;;;;;;55.03;34.13;;;;;;;;;;5025708;28;20026;-80
2022/08/17 00:41:44;;;;;;;60.13;36.25;;;;;;;;;;5024216;28;20028;-80
2022/08/17 00:44:10;;;;;;;61.75;36.33;;;;;;;;;;5026324;28;20021;-81
2022/08/17 00:46:39;;;;;;;56.55;35.03;;;;;;;;;;5042525;28;20064;-81
2022/08/17 00:49:05;;;;;;;63.05;36.45;;;;;;;;;;5038304;28;20036;-80
2022/08/17 00:51:33;;;;;;;54.90;35.38;;;;;;;;;;5026795;28;20583;-80
2022/08/17 00:54:03;;;;;;;55.63;35.90;;;;;;;;;;5027045;28;20045;-82
2022/08/17 00:56:32;;;;;;;62.20;36.55;;;;;;;;;;5026792;28;20465;-82
2022/08/17 00:58:57;;;;;;;59.13;35.97;;;;;;;;;;5056299;28;20032;-83
2022/08/17 01:01:23;;;;;;;55.92;34.83;;;;;;;;;;5038719;28;20394;-84
2022/08/17 01:03:50;;;;;;;58.40;34.22;;;;;;;;;;5024206;28;20025;-81
2022/08/17 01:06:15;;;;;;;61.75;35.92;;;;;;;;;;5023712;28;20053;-81
2022/08/17 01:08:41;;;;;;;61.15;35.08;;;;;;;;;;5042374;28;20454;-82
2022/08/17 01:11:06;;;;;;;63.40;36.00;;;;;;;;;;5025939;28;20033;-82
2022/08/17 01:13:39;;;;;;;55.03;34.42;;;;;;;;;;5026141;28;20026;-79
2022/08/17 01:16:08;;;;;;;59.72;36.53;;;;;;;;;;5023837;28;20393;-81
2022/08/17 01:18:34;;;;;;;61.90;35.78;;;;;;;;;;5024375;28;20041;-82
2022/08/17 01:21:03;;;;;;;60.13;35.40;;;;;;;;;;5056478;28;20022;-80
2022/08/17 01:23:28;;;;;;;57.17;38.38;;;;;;;;;;5022864;28;20448;-82
2022/08/17 01:25:56;;;;;;;66.78;38.97;;;;;;;;;;5024942;28;20028;-83
2022/08/17 01:28:21;;;;;;;63.35;38.05;;;;;;;;;;5025521;28;20092;-83
2022/08/17 01:30:47;;;;;;;58.70;36.90;;;;;;;;;;5022576;28;20084;-80
2022/08/17 01:33:12;;;;;;;61.25;37.75;;;;;;;;;;5022649;28;20029;-80
2022/08/17 01:35:38;;;;;;;63.72;37.75;;;;;;;;;;5055202;28;20526;-82
2022/08/17 01:38:04;;;;;;;60.60;37.10;;;;;;;;;;5023154;28;20029;-80
2022/08/17 01:40:29;;;;;;;70.63;41.00;;;;;;;;;;5021078;28;20458;-80
2022/08/17 01:43:06;;;;;;;63.97;38.80;;;;;;;;;;5022230;28;20053;-82
2022/08/17 01:45:32;;;;;;;62.03;37.83;;;;;;;;;;5056446;28;20281;-82
2022/08/17 01:47:58;;;;;;;76.63;39.85;;;;;;;;;;5053386;28;21219;-82
2022/08/17 01:50:29;;;;;;;74.15;41.38;;;;;;;;;;5024149;28;20068;-80
2022/08/17 01:52:56;;;;;;;72.53;42.17;;;;;;;;;;5021989;28;20383;-83
2022/08/17 01:55:23;;;;;;;76.03;40.53;;;;;;;;;;5024677;28;20027;-80
2022/08/17 01:57:48;;;;;;;73.55;41.80;;;;;;;;;;5022574;28;20111;-82
2022/08/17 02:00:14;;;;;;;72.40;44.00;;;;;;;;;;5022598;28;20064;-83
2022/08/17 02:02:39;;;;;;;67.53;39.67;;;;;;;;;;5036810;28;20552;-82
2022/08/17 02:05:06;;;;;;;85.78;45.42;;;;;;;;;;5055792;28;20104;-82
2022/08/17 02:07:31;;;;;;;76.05;41.95;;;;;;;;;;5014634;28;20115;-81
2022/08/17 02:09:57;;;;;;;73.03;43.70;;;;;;;;;;5023105;28;20021;-82
2022/08/17 02:12:23;;;;;;;79.40;45.10;;;;;;;;;;5043466;28;20034;-80
2022/08/17 02:14:49;;;;;;;76.18;45.20;;;;;;;;;;5026162;28;20033;-80
2022/08/17 02:17:14;;;;;;;77.25;42.92;;;;;;;;;;5022029;28;20024;-80
2022/08/17 02:19:39;;;;;;;83.55;44.75;;;;;;;;;;5025400;28;20622;-80
2022/08/17 02:22:04;;;;;;;69.28;40.67;;;;;;;;;;5025749;28;20049;-80
2022/08/17 02:24:31;;;;;;;79.32;44.28;;;;;;;;;;5041402;28;20029;-83
2022/08/17 02:26:57;;;;;;;76.75;42.67;;;;;;;;;;5025790;28;20555;-82
2022/08/17 02:29:22;;;;;;;83.22;44.03;;;;;;;;;;5027849;28;20053;-83
2022/08/17 02:31:50;;;;;;;77.00;44.53;;;;;;;;;;5030566;28;20382;-79
2022/08/17 02:34:15;;;;;;;80.72;43.85;;;;;;;;;;5028470;28;20285;-82
2022/08/17 02:36:40;;;;;;;76.30;44.42;;;;;;;;;;5031709;28;20022;-83
2022/08/17 02:39:07;;;;;;;76.03;42.53;;;;;;;;;;5025972;28;20068;-83
2022/08/17 02:41:32;;;;;;;80.15;45.38;;;;;;;;;;5028467;28;20099;-82
2022/08/17 02:43:58;;;;;;;85.90;45.33;;;;;;;;;;5029711;28;20025;-82
2022/08/17 02:46:23;;;;;;;85.03;46.17;;;;;;;;;;5028117;28;21251;-79
2022/08/17 02:48:48;;;;;;;86.57;48.03;;;;;;;;;;5024847;28;20021;-81
2022/08/17 02:51:14;;;;;;;89.27;47.87;;;;;;;;;;5028134;28;20389;-82
2022/08/17 02:53:39;;;;;;;86.80;47.95;;;;;;;;;;5027674;28;20286;-81
2022/08/17 02:56:05;;;;;;;95.00;50.47;;;;;;;;;;5029475;28;20045;-81
2022/08/17 02:58:30;;;;;;;105.75;52.08;;;;;;;;;;5028987;28;20392;-81
2022/08/17 03:00:55;;;;;;;100.80;51.60;;;;;;;;;;5022482;28;20014;-80
2022/08/17 03:03:20;;;;;;;97.05;49.38;;;;;;;;;;5022417;28;20305;-82
2022/08/17 03:05:47;;;;;;;115.20;57.30;;;;;;;;;;5024998;28;20068;-79
2022/08/17 03:08:13;;;;;;;85.20;46.67;;;;;;;;;;5043248;28;20045;-82
2022/08/17 03:10:38;;;;;;;95.65;49.45;;;;;;;;;;5025058;28;20033;-82
2022/08/17 03:13:03;;;;;;;89.43;47.17;;;;;;;;;;5026212;28;20029;-82
2022/08/17 03:15:32;;;;;;;88.63;47.22;;;;;;;;;;5042290;28;20125;-80
2022/08/17 03:18:01;;;;;;;94.53;45.75;;;;;;;;;;5027414;28;20451;-82
2022/08/17 03:20:28;;;;;;;105.72;51.50;;;;;;;;;;5026964;28;20049;-80
2022/08/17 03:22:57;;;;;;;90.07;48.17;;;;;;;;;;5058622;28;20034;-80
2022/08/17 03:25:24;;;;;;;89.95;46.95;;;;;;;;;;5026158;28;20091;-81
2022/08/17 03:27:49;;;;;;;96.72;48.63;;;;;;;;;;5060062;28;20079;-83
2022/08/17 03:30:14;;;;;;;102.97;51.25;;;;;;;;;;5025157;28;20049;-83
2022/08/17 03:32:41;;;;;;;101.60;50.78;;;;;;;;;;5027047;28;20092;-83
2022/08/17 03:35:07;;;;;;;93.50;50.22;;;;;;;;;;5028425;28;20052;-80
2022/08/17 03:37:32;;;;;;;121.05;59.20;;;;;;;;;;5026602;28;20049;-83
2022/08/17 03:39:57;;;;;;;94.60;49.22;;;;;;;;;;5024307;28;20079;-83
2022/08/17 03:42:24;;;;;;;99.28;50.67;;;;;;;;;;5028288;28;20022;-80
2022/08/17 03:44:50;;;;;;;106.40;53.40;;;;;;;;;;5027298;28;20036;-82
2022/08/17 03:58:11;;;;;;;102.13;49.80;;;;;;;;;;5027068;28;20063;-80
2022/08/17 04:00:38;;;;;;;104.72;53.22;;;;;;;;;;5023783;28;20021;-83
2022/08/17 04:03:06;;;;;;;102.88;53.75;;;;;;;;;;5023451;28;20575;-83
2022/08/17 04:05:31;;;;;;;102.57;51.58;;;;;;;;;;5026465;28;20083;-81
2022/08/17 04:07:56;;;;;;;96.22;50.72;;;;;;;;;;5024693;28;20038;-82
2022/08/17 04:10:21;;;;;;;101.77;50.50;;;;;;;;;;5027780;28;20053;-82
2022/08/17 04:12:49;;;;;;;104.93;51.30;;;;;;;;;;5043233;28;20320;-79
2022/08/17 04:15:15;;;;;;;92.32;49.47;;;;;;;;;;5024064;28;20143;-81
2022/08/17 04:17:43;;;;;;;94.55;47.03;;;;;;;;;;5041512;28;20053;-84
2022/08/17 04:20:08;;;;;;;96.75;51.47;;;;;;;;;;5024554;28;20029;-82
2022/08/17 04:22:33;;;;;;;89.00;46.92;;;;;;;;;;5027428;28;20484;-81
2022/08/17 04:25:00;;;;;;;109.70;54.63;;;;;;;;;;5028253;28;20044;-81
2022/08/17 04:27:25;;;;;;;99.15;49.83;;;;;;;;;;5040108;28;20029;-83
2022/08/17 04:29:51;;;;;;;97.82;47.97;;;;;;;;;;5025116;28;20025;-83
2022/08/17 04:32:16;;;;;;;99.40;49.83;;;;;;;;;;5029096;28;20105;-82
2022/08/17 04:34:42;;;;;;;96.50;49.60;;;;;;;;;;5025992;28;20029;-83
2022/08/17 04:37:07;;;;;;;106.95;50.72;;;;;;;;;;5042092;28;20282;-80
2022/08/17 04:39:32;;;;;;;97.93;48.05;;;;;;;;;;5025463;28;20045;-81
2022/08/17 04:42:15;;;;;;;104.77;51.30;;;;;;;;;;5041085;28;20025;-83
2022/08/17 04:44:40;;;;;;;96.72;48.33;;;;;;;;;;5024536;28;20279;-81
2022/08/17 04:47:06;;;;;;;97.75;48.85;;;;;;;;;;5026129;28;20044;-81
2022/08/17 04:49:31;;;;;;;99.07;47.53;;;;;;;;;;5056704;28;20026;-81
2022/08/17 04:51:56;;;;;;;94.70;49.72;;;;;;;;;;5018251;28;20033;-83
2022/08/17 04:54:21;;;;;;;109.63;53.75;;;;;;;;;;5040097;28;20026;-82
2022/08/17 04:56:47;;;;;;;100.57;48.92;;;;;;;;;;5026753;28;20060;-83
2022/08/17 04:59:15;;;;;;;99.38;49.50;;;;;;;;;;5021900;28;20769;-83
2022/08/17 05:01:40;;;;;;;90.80;45.38;;;;;;;;;;5016781;28;20021;-83
2022/08/17 05:04:08;;;;;;;90.35;46.25;;;;;;;;;;5024295;28;20071;-81
2022/08/17 05:06:34;;;;;;;107.35;50.92;;;;;;;;;;5024161;28;20378;-83
2022/08/17 05:08:59;;;;;;;99.07;51.08;;;;;;;;;;5042705;28;20053;-83
2022/08/17 05:11:25;;;;;;;107.97;53.85;;;;;;;;;;5024911;28;20112;-80
2022/08/17 05:13:51;;;;;;;106.38;53.20;;;;;;;;;;5024748;28;20034;-80
2022/08/17 05:16:17;;;;;;;103.53;50.28;;;;;;;;;;5024157;28;20029;-83
2022/08/17 05:18:43;;;;;;;134.85;64.18;;;;;;;;;;5025375;28;20103;-83
2022/08/17 05:21:08;;;;;;;111.78;54.05;;;;;;;;;;5022397;28;20156;-81
2022/08/17 05:23:34;;;;;;;98.50;47.83;;;;;;;;;;5019883;28;20036;-79
2022/08/17 05:25:59;;;;;;;114.18;55.47;;;;;;;;;;5033288;28;20017;-79
2022/08/17 05:28:26;;;;;;;112.93;56.00;;;;;;;;;;5037385;28;20052;-82
2022/08/17 05:30:51;;;;;;;91.38;47.83;;;;;;;;;;5023601;28;20517;-83
2022/08/17 05:33:19;;;;;;;133.90;63.83;;;;;;;;;;5035337;28;20033;-81
2022/08/17 05:35:45;;;;;;;113.85;57.00;;;;;;;;;;5021829;28;20108;-83
2022/08/17 05:38:12;;;;;;;117.15;58.42;;;;;;;;;;5018553;28;20029;-83
2022/08/17 05:40:37;;;;;;;93.22;45.70;;;;;;;;;;5019963;28;21428;-79
2022/08/17 05:43:07;;;;;;;97.38;48.80;;;;;;;;;;5022770;28;20033;-80
2022/08/17 05:45:32;;;;;;;105.90;52.95;;;;;;;;;;5020009;28;20053;-80
2022/08/17 05:47:58;;;;;;;85.57;45.30;;;;;;;;;;5023911;28;20060;-81
2022/08/17 05:50:30;;;;;;;95.68;48.47;;;;;;;;;;5027440;28;20034;-82
2022/08/17 05:53:14;;;;;;;80.28;42.92;;;;;;;;;;5024972;28;20057;-80
2022/08/17 05:55:57;;;;;;;106.03;52.47;;;;;;;;;;5029951;28;20029;-83
2022/08/17 05:58:31;;;;;;;106.82;52.15;;;;;;;;;;5042186;28;20049;-82
2022/08/17 06:01:08;;;;;;;104.00;53.00;;;;;;;;;;5028949;28;20024;-80
2022/08/17 06:04:03;;;;;;;108.95;53.20;;;;;;;;;;5030965;28;20036;-80
2022/08/17 06:06:31;;;;;;;90.40;46.97;;;;;;;;;;4971317;28;20038;-83
2022/08/17 06:09:12;;;;;;;51.70;31.02;;;;;;;;;;5044061;28;20053;-81
2022/08/17 06:11:43;;;;;;;46.50;26.92;;;;;;;;;;5017936;28;20029;-83
2022/08/17 06:14:29;;;;;;;65.25;34.38;;;;;;;;;;5044055;28;20497;-80
2022/08/17 06:17:07;;;;;;;61.95;34.72;;;;;;;;;;5034064;28;20145;-84
2022/08/17 06:19:41;;;;;;;56.33;32.88;;;;;;;;;;5030921;28;20045;-87
2022/08/17 06:22:07;;;;;;;58.33;32.53;;;;;;;;;;5050065;28;20025;-79
2022/08/17 06:24:33;;;;;;;60.60;33.53;;;;;;;;;;5034734;28;20392;-83
2022/08/17 06:27:06;;;;;;;59.10;33.10;;;;;;;;;;5047222;28;20024;-85
2022/08/17 06:29:36;;;;;;;57.97;34.38;;;;;;;;;;5068450;28;20112;-81
2022/08/17 06:32:02;;;;;;;67.85;35.95;;;;;;;;;;5029611;28;20404;-82
2022/08/17 06:34:31;;;;;;;65.53;37.25;;;;;;;;;;5033879;28;21555;-80
2022/08/17 06:36:56;;;;;;;65.28;38.80;;;;;;;;;;5034221;28;20033;-84
2022/08/17 06:39:25;;;;;;;64.78;36.13;;;;;;;;;;5035586;28;20473;-86
2022/08/17 06:42:09;;;;;;;51.95;31.05;;;;;;;;;;5045447;28;20124;-81
2022/08/17 06:45:04;;;;;;;53.63;31.48;;;;;;;;;;5030453;28;20032;-86
2022/08/17 06:47:41;;;;;;;48.80;30.90;;;;;;;;;;5027362;28;20043;-82
2022/08/17 06:50:25;;;;;;;51.13;29.42;;;;;;;;;;5031450;28;20424;-80
2022/08/17 06:53:17;;;;;;;50.72;27.80;;;;;;;;;;5030387;28;20025;-80
2022/08/17 06:55:45;;;;;;;52.85;30.45;;;;;;;;;;5028228;28;20527;-86
2022/08/17 06:58:12;;;;;;;52.60;31.23;;;;;;;;;;5026143;28;20026;-86
2022/08/17 07:00:40;;;;;;;48.65;29.27;;;;;;;;;;5065215;28;20022;-82
2022/08/17 07:03:24;;;;;;;53.78;31.60;;;;;;;;;;5041562;28;20033;-82
2022/08/17 07:05:55;;;;;;;51.53;30.05;;;;;;;;;;5028543;28;20478;-86
2022/08/17 07:08:37;;;;;;;54.88;31.65;;;;;;;;;;5030474;28;20053;-87
2022/08/17 07:11:11;;;;;;;67.82;36.70;;;;;;;;;;5024573;28;20025;-82
2022/08/17 07:13:43;;;;;;;60.60;35.10;;;;;;;;;;5028823;28;20056;-87
2022/08/17 07:16:15;;;;;;;59.73;33.90;;;;;;;;;;5026922;28;20039;-86
2022/08/17 07:18:42;;;;;;;86.78;47.53;;;;;;;;;;5028434;28;20022;-80
2022/08/17 07:21:22;;;;;;;69.95;35.88;;;;;;;;;;5028835;28;20028;-87
2022/08/17 07:23:59;;;;;;;68.05;35.13;;;;;;;;;;5025204;28;20430;-86
2022/08/17 07:26:26;;;;;;;64.20;36.83;;;;;;;;;;5026392;28;20062;-84
2022/08/17 07:28:54;;;;;;;62.50;36.20;;;;;;;;;;5026906;28;20045;-86
2022/08/17 07:31:20;;;;;;;75.00;40.22;;;;;;;;;;5027810;28;20035;-86
2022/08/17 07:34:05;;;;;;;63.42;38.53;;;;;;;;;;5027431;28;20033;-83
2022/08/17 07:36:32;;;;;;;72.53;42.05;;;;;;;;;;5042115;28;20057;-83
2022/08/17 07:38:58;;;;;;;72.45;41.05;;;;;;;;;;5025697;28;20035;-82
2022/08/17 07:41:23;;;;;;;70.60;40.58;;;;;;;;;;5026754;28;20038;-82
2022/08/17 07:43:51;;;;;;;67.68;37.17;;;;;;;;;;5025598;28;20482;-85
2022/08/17 07:49:07;;;;;;;60.20;36.70;;;;;;;;;;5025547;28;20044;-87
2022/08/17 07:51:35;;;;;;;57.92;33.08;;;;;;;;;;5023767;28;20037;-82
2022/08/17 07:54:05;;;;;;;62.92;35.15;;;;;;;;;;5027557;28;20084;-81
2022/08/17 07:56:30;;;;;;;53.90;32.28;;;;;;;;;;5027716;28;20029;-80
2022/08/17 07:59:28;;;;;;;53.28;31.85;;;;;;;;;;5029776;28;20055;-85
2022/08/17 08:01:53;;;;;;;63.10;36.47;;;;;;;;;;5004863;28;20045;-85
2022/08/17 08:04:28;;;;;;;53.90;30.97;;;;;;;;;;5028450;28;20685;-83
2022/08/17 08:06:54;;;;;;;56.65;32.35;;;;;;;;;;5023794;28;20281;-82
2022/08/17 08:09:33;;;;;;;53.40;30.50;;;;;;;;;;5042450;28;20497;-85
2022/08/17 08:11:59;;;;;;;58.33;34.10;;;;;;;;;;5022621;28;20013;-86
2022/08/17 08:14:37;;;;;;;50.05;30.42;;;;;;;;;;5026588;28;20025;-81
2022/08/17 08:17:04;;;;;;;57.25;31.55;;;;;;;;;;5025181;28;20035;-83
2022/08/17 08:19:30;;;;;;;52.22;31.98;;;;;;;;;;5038691;28;20069;-82
2022/08/17 08:21:55;;;;;;;54.80;34.85;;;;;;;;;;5023782;28;20065;-84
2022/08/17 08:24:20;;;;;;;56.83;31.45;;;;;;;;;;5037668;28;20029;-81
2022/08/17 08:26:52;;;;;;;61.47;33.30;;;;;;;;;;5022637;28;20469;-80
2022/08/17 08:29:17;;;;;;;;;;;;;;;;;;5027978;28;20044;-86
2022/08/17 08:31:56;;;;;;;72.47;36.13;;;;;;;;;;5038868;28;19909;-81
2022/08/17 08:34:30;;;;;;;62.90;33.78;;;;;;;;;;5016698;28;20038;-85
2022/08/17 08:37:12;;;;;;;58.03;32.00;;;;;;;;;;5037462;28;20500;-81
2022/08/17 08:39:57;;;;;;;60.08;32.97;;;;;;;;;;5038980;28;20032;-86
2022/08/17 08:42:39;;;;;;;59.47;33.70;;;;;;;;;;5036827;28;20049;-82
2022/08/17 08:45:12;;;;;;;84.43;42.15;;;;;;;;;;5022905;28;20769;-86
2022/08/17 08:47:40;;;;;;;59.45;34.03;;;;;;;;;;5023753;28;20048;-81
2022/08/17 08:50:15;;;;;;;61.78;32.40;;;;;;;;;;5036930;28;20026;-84
2022/08/17 08:52:49;;;;;;;63.20;34.58;;;;;;;;;;5019793;28;20037;-82
2022/08/17 08:55:19;;;;;;;71.15;39.10;;;;;;;;;;5025050;28;20025;-85
2022/08/17 08:57:59;;;;;;;63.97;34.50;;;;;;;;;;5023891;28;20709;-85
2022/08/17 09:00:34;;;;;;;69.28;37.38;;;;;;;;;;5018298;28;20116;-83
2022/08/17 09:03:06;;;;;;;63.47;34.00;;;;;;;;;;5021030;28;20021;-86
2022/08/17 09:05:41;;;;;;;62.45;35.45;;;;;;;;;;5024407;28;20024;-82
2022/08/17 09:08:12;;;;;;;79.43;41.95;;;;;;;;;;5024109;28;20102;-82
2022/08/17 09:10:48;;;;;;;67.78;37.35;;;;;;;;;;5037214;28;20029;-85
2022/08/17 09:13:23;;;;;;;63.10;34.05;;;;;;;;;;5023100;28;20028;-86
2022/08/17 09:15:54;;;;;;;73.28;38.67;;;;;;;;;;5019087;28;20551;-87
2022/08/17 09:18:26;;;;;;;54.87;33.17;;;;;;;;;;5025730;28;20517;-82
2022/08/17 09:20:57;;;;;;;81.78;42.65;;;;;;;;;;5042001;28;20497;-83
2022/08/17 09:23:30;;;;;;;59.15;34.25;;;;;;;;;;5046126;28;20057;-87
2022/08/17 09:26:05;;;;;;;57.60;34.30;;;;;;;;;;5037415;28;20021;-88
2022/08/17 09:28:35;;;;;;;60.95;34.20;;;;;;;;;;5029288;28;20040;-87
2022/08/17 09:31:05;;;;;;;60.20;34.38;;;;;;;;;;5027595;28;20088;-83
2022/08/17 09:33:32;;;;;;;66.15;37.40;;;;;;;;;;5052141;28;20602;-82
2022/08/17 09:36:08;;;;;;;56.70;33.42;;;;;;;;;;5026437;28;20071;-86
2022/08/17 09:38:53;;;;;;;64.70;35.05;;;;;;;;;;5033108;28;20954;-82
2022/08/17 09:41:21;;;;;;;68.15;36.42;;;;;;;;;;5025041;28;20037;-82
2022/08/17 09:44:02;;;;;;;70.78;35.45;;;;;;;;;;5025358;28;20025;-82
2022/08/17 09:46:29;;;;;;;65.13;36.03;;;;;;;;;;5036621;28;20424;-88
2022/08/17 09:49:00;;;;;;;70.40;38.53;;;;;;;;;;5021105;28;20033;-82
2022/08/17 09:51:34;;;;;;;62.22;36.67;;;;;;;;;;5024737;28;20043;-85
2022/08/17 09:54:00;;;;;;;69.20;37.38;;;;;;;;;;5019391;28;20037;-85
2022/08/17 09:56:37;;;;;;;71.55;36.83;;;;;;;;;;5015336;28;20037;-87
2022/08/17 09:59:12;;;;;;;68.60;38.35;;;;;;;;;;5021542;28;20045;-82
2022/08/17 10:01:38;;;;;;;63.58;34.70;;;;;;;;;;5025249;28;20048;-87
2022/08/17 10:04:09;;;;;;;71.45;38.22;;;;;;;;;;5040820;28;20025;-81
2022/08/17 10:06:40;;;;;;;68.72;37.33;;;;;;;;;;5020451;28;20030;-87
2022/08/17 10:09:13;;;;;;;69.93;38.28;;;;;;;;;;5020920;28;20115;-81
2022/08/17 10:14:30;;;;;;;60.80;36.15;;;;;;;;;;5023698;28;20500;-87
2022/08/17 10:17:01;;;;;;;62.25;35.28;;;;;;;;;;5036962;28;20034;-81
2022/08/17 10:19:32;;;;;;;68.35;38.78;;;;;;;;;;5020603;28;20037;-82
2022/08/17 10:27:41;;;;;;;59.08;34.42;;;;;;;;;;5022829;28;20041;-81
2022/08/17 10:30:09;;;;;;;66.50;41.35;;;;;;;;;;5024540;28;20032;-82
2022/08/17 10:32:39;;;;;;;75.97;44.50;;;;;;;;;;5021299;28;20036;-81
2022/08/17 10:35:14;;;;;;;72.55;44.70;;;;;;;;;;5025901;28;20029;-79
2022/08/17 10:37:47;;;;;;;81.63;41.55;;;;;;;;;;5037202;28;20084;-80
2022/08/17 10:40:12;;;;;;;;;;;;;;;;;;5023397;28;20079;-79
2022/08/17 10:42:52;;;;;;;82.38;47.30;;;;;;;;;;5021480;28;19921;-81
2022/08/17 10:45:28;;;;;;;78.30;49.00;;;;;;;;;;5019932;28;20029;-80
2022/08/17 10:47:58;;;;;;;100.15;56.55;;;;;;;;;;5022463;28;20021;-81
2022/08/17 10:50:42;;;;;;;77.72;47.55;;;;;;;;;;5021871;28;20056;-82
2022/08/17 10:53:08;;;;;;;72.55;45.08;;;;;;;;;;5038579;28;20044;-81
2022/08/17 10:55:33;;;;;;;78.05;45.00;;;;;;;;;;5026658;28;20033;-78
2022/08/17 10:58:17;;;;;;;91.43;49.75;;;;;;;;;;5016761;28;20072;-79
2022/08/17 11:00:42;;;;;;;86.53;51.38;;;;;;;;;;5025884;28;20418;-82
2022/08/17 11:03:19;;;;;;;75.05;45.70;;;;;;;;;;5020635;28;20091;-79
2022/08/17 11:06:11;;;;;;;84.47;46.88;;;;;;;;;;5028442;28;20013;-81
2022/08/17 11:08:42;;;;;;;72.22;41.72;;;;;;;;;;5008349;28;20568;-82
2022/08/17 11:11:07;;;;;;;82.60;44.83;;;;;;;;;;5039441;28;20117;-79
2022/08/17 11:13:43;;;;;;;87.40;47.83;;;;;;;;;;5029378;28;20124;-79
2022/08/17 11:16:36;;;;;;;72.57;43.45;;;;;;;;;;5037740;28;20263;-80
2022/08/17 11:19:04;;;;;;;;;;;;;;;;;;5021343;28;20026;-81
2022/08/17 11:21:33;;;;;;;68.82;41.63;;;;;;;;;;5021501;28;19967;-81
2022/08/17 11:24:04;;;;;;;80.82;46.33;;;;;;;;;;5022671;28;20390;-81
2022/08/17 11:26:32;;;;;;;89.15;47.75;;;;;;;;;;5031965;28;20020;-79
2022/08/17 11:29:02;;;;;;;69.35;40.72;;;;;;;;;;5016424;28;20030;-82
2022/08/17 11:31:30;;;;;;;82.85;46.95;;;;;;;;;;5018262;28;20894;-80
2022/08/17 11:33:57;;;;;;;79.32;41.28;;;;;;;;;;5018861;28;20029;-77
2022/08/17 11:36:31;;;;;;;85.50;47.05;;;;;;;;;;5022743;28;20024;-81
2022/08/17 11:39:04;;;;;;;71.63;40.88;;;;;;;;;;5022476;28;20033;-81
2022/08/17 11:41:48;;;;;;;97.47;51.88;;;;;;;;;;5023850;28;20500;-79
2022/08/17 11:44:36;;;;;;;94.30;49.63;;;;;;;;;;5042264;28;20029;-81
2022/08/17 11:52:58;;;;;;;64.18;39.22;;;;;;;;;;5022357;28;20389;-81
2022/08/17 11:55:26;;;;;;;81.63;46.92;;;;;;;;;;5023808;28;20029;-79
2022/08/17 11:58:00;;;;;;;76.65;41.28;;;;;;;;;;5030911;28;20064;-79
2022/08/17 12:00:53;;;;;;;66.10;37.60;;;;;;;;;;5024924;28;20067;-81
2022/08/17 12:03:42;;;;;;;81.90;43.65;;;;;;;;;;5027556;28;20065;-78
2022/08/17 12:06:14;;;;;;;68.82;38.38;;;;;;;;;;5029858;28;20040;-78
2022/08/17 12:08:47;;;;;;;68.00;37.00;;;;;;;;;;5043646;28;20057;-77
2022/08/17 12:11:18;;;;;;;71.60;41.10;;;;;;;;;;5030678;28;20179;-79
2022/08/17 12:13:46;;;;;;;74.70;39.35;;;;;;;;;;5025038;28;20568;-78
2022/08/17 12:16:16;;;;;;;65.95;37.85;;;;;;;;;;5025073;28;20059;-78
2022/08/17 12:18:47;;;;;;;70.82;39.58;;;;;;;;;;5028674;28;20030;-81
2022/08/17 12:21:25;;;;;;;73.75;39.17;;;;;;;;;;5023600;28;20044;-79
2022/08/17 12:23:58;;;;;;;62.33;37.28;;;;;;;;;;5026306;28;20036;-80
2022/08/17 12:26:26;;;;;;;72.07;40.55;;;;;;;;;;5042508;28;20021;-81
2022/08/17 12:28:57;;;;;;;45.95;27.95;;;;;;;;;;5020160;28;20045;-80
2022/08/17 12:31:28;;;;;;;45.53;28.02;;;;;;;;;;5025518;28;20043;-81
2022/08/17 12:33:54;;;;;;;63.33;36.65;;;;;;;;;;5022241;28;20029;-81
2022/08/17 12:36:24;;;;;;;70.93;40.42;;;;;;;;;;5015737;28;20036;-81
2022/08/17 12:38:51;;;;;;;65.15;37.92;;;;;;;;;;5016223;28;20030;-81
2022/08/17 12:41:28;;;;;;;64.00;36.88;;;;;;;;;;5018089;28;20037;-81
2022/08/17 12:44:13;;;;;;;68.60;39.63;;;;;;;;;;5020932;28;20091;-81
2022/08/17 12:46:59;;;;;;;57.55;34.90;;;;;;;;;;5016413;28;20040;-83
2022/08/17 12:49:29;;;;;;;46.75;28.25;;;;;;;;;;5012972;28;20514;-81
2022/08/17 12:52:00;;;;;;;53.90;32.67;;;;;;;;;;5022346;28;20102;-83
2022/08/17 12:54:30;;;;;;;47.83;28.05;;;;;;;;;;5019215;28;20057;-82
2022/08/17 12:56:56;;;;;;;79.55;40.13;;;;;;;;;;5014892;28;21883;-82
2022/08/17 12:59:22;;;;;;;51.65;31.58;;;;;;;;;;5021399;28;20533;-82
2022/08/17 13:01:47;;;;;;;58.63;35.58;;;;;;;;;;5038965;28;20036;-83
2022/08/17 13:04:14;;;;;;;47.85;30.40;;;;;;;;;;5046196;28;20504;-83
2022/08/17 13:06:45;;;;;;;53.22;32.78;;;;;;;;;;5024856;28;21172;-83
2022/08/17 13:09:17;;;;;;;68.63;39.42;;;;;;;;;;5021727;28;20124;-84
2022/08/17 13:11:47;;;;;;;77.50;42.63;;;;;;;;;;5019189;28;20041;-89
2022/08/17 13:14:13;;;;;;;81.53;44.53;;;;;;;;;;5023816;28;20048;-87
2022/08/17 13:16:38;;;;;;;61.67;35.13;;;;;;;;;;5020145;28;20481;-87
2022/08/17 13:19:03;;;;;;;61.67;34.63;;;;;;;;;;5031509;28;20036;-83
2022/08/17 13:21:29;;;;;;;68.40;35.75;;;;;;;;;;5040762;28;20033;-84
2022/08/17 13:24:09;;;;;;;61.63;38.28;;;;;;;;;;5022133;28;20106;-85
2022/08/17 13:26:39;;;;;;;62.15;34.75;;;;;;;;;;5017764;28;20025;-85
2022/08/17 13:29:06;;;;;;;56.42;32.17;;;;;;;;;;5017257;28;20034;-85
2022/08/17 13:31:39;;;;;;;64.18;36.17;;;;;;;;;;5013968;28;20025;-85
2022/08/17 13:34:16;;;;;;;59.38;37.05;;;;;;;;;;5039254;28;20061;-86
2022/08/17 13:36:45;;;;;;;69.43;39.20;;;;;;;;;;5036518;28;20134;-83
2022/08/17 13:39:18;;;;;;;81.85;45.25;;;;;;;;;;5019232;28;20630;-88
2022/08/17 13:41:43;;;;;;;73.88;41.53;;;;;;;;;;5017417;28;20092;-87
2022/08/17 13:44:30;;;;;;;69.18;38.90;;;;;;;;;;5026803;28;20017;-88
2022/08/17 13:46:56;;;;;;;76.70;41.33;;;;;;;;;;5028647;28;20670;-86
2022/08/17 13:49:21;;;;;;;69.10;40.13;;;;;;;;;;5041026;28;20033;-85
2022/08/17 13:51:49;;;;;;;70.30;41.20;;;;;;;;;;5018655;28;20037;-84
2022/08/17 13:54:21;;;;;;;75.32;40.25;;;;;;;;;;5021857;28;20348;-83
2022/08/17 13:56:56;;;;;;;75.72;38.42;;;;;;;;;;5024219;28;20055;-85
2022/08/17 13:59:27;;;;;;;68.38;37.38;;;;;;;;;;5023899;28;20121;-84
2022/08/17 14:01:54;;;;;;;71.78;37.13;;;;;;;;;;5024977;28;20041;-85
2022/08/17 14:04:23;;;;;;;73.53;37.70;;;;;;;;;;5024153;28;20037;-87
2022/08/17 14:06:55;;;;;;;75.93;39.45;;;;;;;;;;5025966;28;20037;-85
2022/08/17 14:09:40;;;;;;;74.97;42.17;;;;;;;;;;5040101;28;20045;-86
2022/08/17 14:12:09;;;;;;;70.63;38.38;;;;;;;;;;5019773;28;20401;-85
2022/08/17 14:14:35;;;;;;;82.45;41.38;;;;;;;;;;5043535;28;20037;-86
2022/08/17 14:17:00;;;;;;;75.70;41.03;;;;;;;;;;5023910;28;20033;-83
2022/08/17 14:19:25;;;;;;;77.63;39.75;;;;;;;;;;5019157;28;20384;-83
2022/08/17 14:21:57;;;;;;;83.78;44.83;;;;;;;;;;5044346;28;20033;-85
2022/08/17 14:24:27;;;;;;;84.25;43.50;;;;;;;;;;5026166;28;20025;-84
2022/08/17 14:26:52;;;;;;;94.88;47.22;;;;;;;;;;5022586;28;20030;-84
2022/08/17 14:29:18;;;;;;;92.43;48.78;;;;;;;;;;5024541;28;20030;-86
2022/08/17 14:31:44;;;;;;;97.47;50.67;;;;;;;;;;5025726;28;20044;-85
2022/08/17 14:34:10;;;;;;;88.50;47.97;;;;;;;;;;5042508;28;20029;-85
2022/08/17 14:36:35;;;;;;;91.20;49.30;;;;;;;;;;5024583;28;20033;-86
2022/08/17 14:39:01;;;;;;;85.70;46.60;;;;;;;;;;5030296;28;20038;-84
2022/08/17 14:41:26;;;;;;;91.70;50.73;;;;;;;;;;5028022;28;20083;-85
2022/08/17 14:43:54;;;;;;;91.07;47.65;;;;;;;;;;5043183;28;20331;-87
2022/08/17 14:46:19;;;;;;;87.25;47.67;;;;;;;;;;5027223;28;20120;-86
2022/08/17 14:48:51;;;;;;;77.03;43.22;;;;;;;;;;5021137;28;20580;-87
2022/08/17 14:51:16;;;;;;;82.90;48.70;;;;;;;;;;5018182;28;20028;-87
2022/08/17 14:53:41;;;;;;;75.90;43.23;;;;;;;;;;5035951;28;20042;-88
2022/08/17 14:56:07;;;;;;;80.30;45.05;;;;;;;;;;5042089;28;20274;-89
2022/08/17 14:58:32;;;;;;;87.20;44.58;;;;;;;;;;5024724;28;20473;-89